Time;durP1;ratioP1;P1;durP2;ratioP2;P2;SDS_P1;SDS_P2;PMS_P1;PMS_P2;Temp;Humidity;BMP_temperature;BMP_pressure;BME280_temperature;BME280_humidity;BME280_pressure;Samples;Min_cycle;Max_cycle;Signal;HPM_P1;HPM_P2
2022/06/01 00:01:15;;;;;;;16.80;14.88;;;10.20;99.90;;;;;;4887169;29;20049;-78
2022/06/01 00:03:42;;;;;;;18.73;16.77;;;10.10;99.90;;;;;;4838502;29;20097;-78
2022/06/01 00:06:09;;;;;;;16.75;14.95;;;10.10;99.90;;;;;;4843922;29;20081;-78
2022/06/01 00:08:36;;;;;;;17.50;15.70;;;10.00;99.90;;;;;;4853407;29;20041;-78
2022/06/01 00:11:03;;;;;;;17.55;15.80;;;10.00;99.90;;;;;;4854160;29;20516;-78
2022/06/01 00:13:32;;;;;;;18.52;15.93;;;9.90;99.90;;;;;;4847018;29;20527;-78
2022/06/01 00:16:00;;;;;;;17.80;16.00;;;9.90;99.90;;;;;;4836704;29;20338;-78
2022/06/01 00:18:26;;;;;;;17.00;15.35;;;9.90;99.90;;;;;;4855838;29;20618;-78
2022/06/01 00:20:55;;;;;;;18.58;16.67;;;9.90;99.90;;;;;;4872885;29;20044;-78
2022/06/01 00:23:22;;;;;;;17.15;15.45;;;9.90;99.90;;;;;;4855581;29;20112;-79
2022/06/01 00:25:48;;;;;;;17.17;15.30;;;9.80;99.90;;;;;;4849933;29;20041;-78
2022/06/01 00:28:17;;;;;;;17.48;15.68;;;9.80;99.90;;;;;;4869530;29;20200;-78
2022/06/01 00:30:43;;;;;;;16.70;15.00;;;9.70;99.90;;;;;;4875076;29;20049;-78
2022/06/01 00:33:12;;;;;;;17.85;15.52;;;9.80;99.90;;;;;;4852537;29;20127;-78
2022/06/01 00:35:38;;;;;;;19.17;17.10;;;9.80;99.90;;;;;;4839451;29;20045;-78
2022/06/01 00:38:04;;;;;;;16.38;14.68;;;9.70;99.90;;;;;;4835160;29;20177;-79
2022/06/01 00:40:31;;;;;;;17.33;15.40;;;9.70;99.90;;;;;;4858429;29;20092;-78
2022/06/01 00:42:59;;;;;;;19.45;17.48;;;9.70;99.90;;;;;;4854011;29;20150;-78
2022/06/01 00:45:28;;;;;;;17.58;15.77;;;9.70;99.90;;;;;;4838816;29;20068;-78
2022/06/01 00:47:54;;;;;;;18.38;16.45;;;9.70;99.90;;;;;;4837586;29;20034;-78
2022/06/01 00:50:32;;;;;;;17.27;15.48;;;9.70;99.90;;;;;;4864178;29;20048;-78
2022/06/01 00:53:05;;;;;;;17.92;16.08;;;9.70;99.90;;;;;;4863881;29;20041;-78
2022/06/01 00:55:35;;;;;;;19.02;16.95;;;9.60;99.90;;;;;;4849940;29;20047;-78
2022/06/01 00:58:08;;;;;;;19.15;17.15;;;9.70;99.90;;;;;;4847456;29;20045;-79
2022/06/01 01:00:41;;;;;;;18.77;16.88;;;9.70;99.90;;;;;;4852145;29;20056;-78
2022/06/01 01:03:11;;;;;;;18.45;16.42;;;9.70;99.90;;;;;;4845711;29;20059;-80
2022/06/01 01:05:46;;;;;;;18.13;16.25;;;9.70;99.90;;;;;;4850060;29;20531;-79
2022/06/01 01:08:13;;;;;;;18.48;16.58;;;9.70;99.90;;;;;;4840439;29;20407;-79
2022/06/01 01:10:39;;;;;;;20.30;17.63;;;9.70;99.90;;;;;;4844620;29;20076;-79
2022/06/01 01:13:08;;;;;;;19.08;17.08;;;9.70;99.90;;;;;;4853092;29;20033;-78
2022/06/01 01:15:55;;;;;;;18.30;16.48;;;9.80;99.90;;;;;;4856535;29;20400;-79
2022/06/01 01:18:30;;;;;;;18.58;16.63;;;9.80;99.90;;;;;;4839575;29;20104;-78
2022/06/01 01:21:27;;;;;;;17.98;16.08;;;9.80;99.90;;;;;;4849350;29;20051;-79
2022/06/01 01:24:05;;;;;;;19.08;17.17;;;9.80;99.90;;;;;;4845144;29;20049;-79
2022/06/01 01:26:35;;;;;;;19.88;17.83;;;9.80;99.90;;;;;;4857939;29;20079;-79
2022/06/01 01:29:09;;;;;;;17.77;15.85;;;9.90;99.90;;;;;;4856782;29;20182;-79
2022/06/01 01:31:37;;;;;;;20.77;18.52;;;9.90;99.90;;;;;;4852565;29;20108;-79
2022/06/01 01:34:04;;;;;;;18.88;16.98;;;9.90;99.90;;;;;;4859507;29;20496;-79
2022/06/01 01:36:35;;;;;;;18.85;16.95;;;9.90;99.90;;;;;;4855754;29;20169;-78
2022/06/01 01:39:13;;;;;;;18.75;16.90;;;10.00;99.90;;;;;;4854423;29;20559;-78
2022/06/01 01:41:55;;;;;;;18.85;16.48;;;10.00;99.90;;;;;;4849947;29;20411;-78
2022/06/01 01:44:26;;;;;;;18.90;16.95;;;10.00;99.90;;;;;;4871922;29;20389;-79
2022/06/01 01:46:54;;;;;;;18.35;16.52;;;9.90;99.90;;;;;;4875811;29;20496;-78
2022/06/01 01:49:22;;;;;;;20.17;17.13;;;10.00;99.90;;;;;;4852020;29;20717;-79
2022/06/01 01:51:58;;;;;;;19.38;17.02;;;10.10;99.90;;;;;;4845612;29;20049;-78
2022/06/01 01:54:32;;;;;;;18.10;16.30;;;10.00;99.90;;;;;;4854525;29;20119;-78
2022/06/01 01:57:24;;;;;;;18.13;16.23;;;10.00;99.90;;;;;;4857210;29;20123;-78
2022/06/01 02:00:14;;;;;;;18.88;16.85;;;10.00;99.90;;;;;;4867682;29;20049;-78
2022/06/01 02:02:58;;;;;;;19.23;17.23;;;10.00;99.90;;;;;;4842251;29;20573;-78
2022/06/01 02:08:36;;;;;;;18.33;16.52;;;10.00;99.90;;;;;;4884943;29;20049;-78
2022/06/01 02:14:11;;;;;;;19.95;17.38;;;10.00;99.90;;;;;;4867445;29;20048;-78
2022/06/01 02:16:47;;;;;;;18.88;16.88;;;10.00;99.90;;;;;;4866810;29;20040;-78
2022/06/01 02:19:29;;;;;;;18.92;16.92;;;10.00;99.90;;;;;;4849120;29;20047;-78
2022/06/01 02:21:55;;;;;;;21.23;18.92;;;10.10;99.90;;;;;;4848138;29;20131;-79
2022/06/01 02:24:23;;;;;;;20.02;16.88;;;10.10;99.90;;;;;;4865578;29;20047;-78
2022/06/01 02:26:50;;;;;;;20.02;17.77;;;10.10;99.90;;;;;;4857715;29;20080;-78
2022/06/01 02:29:24;;;;;;;20.42;17.95;;;10.00;99.90;;;;;;4856091;29;20075;-79
2022/06/01 02:31:52;;;;;;;19.20;17.17;;;10.00;99.90;;;;;;4845536;29;20462;-78
2022/06/01 02:34:21;;;;;;;20.80;18.23;;;10.10;99.90;;;;;;4831338;29;20124;-78
2022/06/01 02:36:48;;;;;;;19.83;17.83;;;10.00;99.90;;;;;;4851497;29;20070;-78
2022/06/01 02:39:19;;;;;;;22.85;19.00;;;10.00;99.90;;;;;;4863127;29;20068;-79
2022/06/01 02:44:32;;;;;;;20.73;18.48;;;10.00;99.90;;;;;;4866795;29;20044;-78
2022/06/01 02:47:01;;;;;;;22.88;19.20;;;10.00;99.90;;;;;;4858137;29;20040;-78
2022/06/01 02:49:26;;;;;;;21.67;19.35;;;10.00;99.90;;;;;;4847721;29;20058;-79
2022/06/01 02:51:55;;;;;;;20.63;18.48;;;10.00;99.90;;;;;;4840570;29;20050;-79
2022/06/01 02:54:20;;;;;;;20.75;18.52;;;9.90;99.90;;;;;;4839527;29;20061;-78
2022/06/01 02:56:49;;;;;;;20.90;18.67;;;9.90;99.90;;;;;;4850115;29;20484;-78
2022/06/01 02:59:18;;;;;;;22.45;18.20;;;9.90;99.90;;;;;;4855251;29;20044;-78
2022/06/01 03:01:44;;;;;;;21.17;18.33;;;9.80;99.90;;;;;;4852160;29;20135;-78
2022/06/01 03:04:13;;;;;;;23.30;19.52;;;9.80;99.90;;;;;;4858621;29;20479;-78
2022/06/01 03:06:41;;;;;;;20.77;18.58;;;9.80;99.90;;;;;;4875783;29;20130;-78
2022/06/01 03:09:07;;;;;;;21.33;19.13;;;9.90;99.90;;;;;;4863486;29;20472;-78
2022/06/01 03:11:32;;;;;;;22.20;19.90;;;9.80;99.90;;;;;;4862341;29;20096;-78
2022/06/01 03:14:01;;;;;;;22.88;19.02;;;9.80;99.90;;;;;;4847502;29;20041;-78
2022/06/01 03:16:26;;;;;;;22.23;19.45;;;9.80;99.90;;;;;;4865436;29;20551;-78
2022/06/01 03:19:01;;;;;;;22.98;19.80;;;9.80;99.90;;;;;;4857884;29;20139;-77
2022/06/01 03:21:28;;;;;;;21.17;18.65;;;9.80;99.90;;;;;;4861606;29;20807;-77
2022/06/01 03:23:55;;;;;;;23.15;20.55;;;9.90;99.90;;;;;;4855152;29;20092;-78
2022/06/01 03:26:24;;;;;;;24.13;20.23;;;9.80;99.90;;;;;;4849374;29;20136;-78
2022/06/01 03:28:50;;;;;;;24.02;20.77;;;9.90;99.90;;;;;;4857668;29;20040;-78
2022/06/01 03:31:16;;;;;;;23.83;20.42;;;9.90;99.90;;;;;;4864860;29;20593;-77
2022/06/01 03:33:45;;;;;;;23.90;21.30;;;9.90;99.90;;;;;;4859591;29;20037;-78
2022/06/01 03:36:11;;;;;;;23.27;20.60;;;9.90;99.90;;;;;;4848758;29;20056;-78
2022/06/01 03:38:39;;;;;;;24.77;22.00;;;9.90;99.90;;;;;;4864091;29;20046;-78
2022/06/01 03:41:06;;;;;;;24.73;21.40;;;9.90;99.90;;;;;;4860013;29;20040;-78
2022/06/01 03:45:55;;;;;;;24.85;21.40;;;9.90;99.90;;;;;;4861865;29;20051;-78
2022/06/01 03:46:20;;;;;;;36.95;22.55;;;9.90;99.90;;;;;;4864108;29;20125;-78
2022/06/01 03:48:45;;;;;;;25.85;23.05;;;10.00;99.90;;;;;;4857698;29;20527;-78
2022/06/01 03:51:11;;;;;;;25.33;21.70;;;10.00;99.90;;;;;;4865351;29;20140;-78
2022/06/01 03:53:37;;;;;;;24.48;20.27;;;10.00;99.90;;;;;;4845243;29;20068;-78
2022/06/01 03:56:03;;;;;;;26.25;22.77;;;10.00;99.90;;;;;;4887602;29;20033;-78
2022/06/01 03:58:29;;;;;;;22.70;19.73;;;10.00;99.90;;;;;;4857801;29;20151;-78
2022/06/01 04:00:55;;;;;;;24.05;21.45;;;10.00;99.90;;;;;;4865437;29;20047;-78
2022/06/01 04:03:21;;;;;;;27.63;23.15;;;10.00;99.90;;;;;;4880770;29;20040;-78
2022/06/01 04:05:48;;;;;;;23.50;20.35;;;10.00;99.90;;;;;;4852572;29;20124;-78
2022/06/01 04:08:14;;;;;;;27.35;21.65;;;10.00;99.90;;;;;;4850712;29;20109;-78
2022/06/01 04:10:43;;;;;;;25.02;20.95;;;9.90;99.90;;;;;;4857284;29;20100;-78
2022/06/01 04:13:09;;;;;;;22.63;19.13;;;10.00;99.90;;;;;;4850436;29;20520;-79
2022/06/01 04:15:35;;;;;;;25.80;23.00;;;10.10;99.90;;;;;;4845812;29;20037;-78
2022/06/01 04:18:02;;;;;;;25.15;22.38;;;10.10;99.90;;;;;;4853798;29;20056;-78
2022/06/01 04:20:27;;;;;;;28.75;23.52;;;10.10;99.90;;;;;;4864940;29;20547;-78
2022/06/01 04:22:55;;;;;;;30.58;24.40;;;10.10;99.90;;;;;;4845594;29;20097;-78
2022/06/01 04:25:25;;;;;;;28.17;23.85;;;10.10;99.90;;;;;;4838815;29;20045;-78
2022/06/01 04:27:53;;;;;;;27.13;23.48;;;10.20;99.90;;;;;;4853519;29;20132;-78
2022/06/01 04:30:20;;;;;;;28.27;23.70;;;10.20;99.90;;;;;;4861833;29;20041;-78
2022/06/01 04:32:49;;;;;;;28.52;23.10;;;10.20;99.90;;;;;;4855551;29;20378;-79
2022/06/01 04:35:17;;;;;;;30.38;24.40;;;10.30;99.90;;;;;;4836683;29;20105;-79
2022/06/01 04:37:46;;;;;;;28.90;24.60;;;10.30;99.90;;;;;;4853437;29;20080;-76
2022/06/01 04:40:13;;;;;;;29.98;24.30;;;10.30;99.90;;;;;;4860845;29;20504;-77
2022/06/01 04:42:40;;;;;;;30.13;24.10;;;10.40;99.90;;;;;;4848117;29;20040;-77
2022/06/01 04:45:08;;;;;;;31.85;25.00;;;10.40;99.90;;;;;;4870984;29;20131;-77
2022/06/01 04:47:36;;;;;;;28.95;24.17;;;10.50;99.90;;;;;;4853637;29;20420;-77
2022/06/01 04:50:04;;;;;;;27.88;23.95;;;10.50;99.90;;;;;;4861465;29;20131;-77
2022/06/01 04:52:33;;;;;;;28.80;24.67;;;10.50;99.90;;;;;;4855713;29;20037;-77
2022/06/01 04:54:59;;;;;;;30.00;24.05;;;10.60;99.90;;;;;;4850865;29;20123;-77
2022/06/01 04:57:28;;;;;;;31.00;24.70;;;10.60;99.90;;;;;;4855417;29;20575;-78
2022/06/01 04:59:57;;;;;;;29.17;24.67;;;10.60;99.90;;;;;;4849639;29;20041;-78
2022/06/01 05:02:22;;;;;;;29.73;24.35;;;10.70;99.90;;;;;;4846070;29;20049;-77
2022/06/01 05:04:48;;;;;;;30.52;25.83;;;10.70;99.90;;;;;;4851770;29;20041;-77
2022/06/01 05:07:17;;;;;;;32.17;25.50;;;10.80;99.90;;;;;;4854506;29;20057;-77
2022/06/01 05:09:43;;;;;;;27.95;23.65;;;10.80;99.90;;;;;;4864262;29;20409;-77
2022/06/01 05:12:12;;;;;;;27.60;23.15;;;10.90;99.90;;;;;;4850615;29;20420;-77
2022/06/01 05:14:38;;;;;;;29.55;24.35;;;11.00;99.90;;;;;;4862481;29;20051;-77
2022/06/01 05:17:04;;;;;;;30.10;24.45;;;11.20;99.90;;;;;;4860913;29;20044;-77
2022/06/01 05:19:34;;;;;;;29.02;24.80;;;11.20;99.90;;;;;;4837186;29;20056;-77
2022/06/01 05:22:03;;;;;;;28.45;23.98;;;11.30;99.90;;;;;;4854927;29;20045;-77
2022/06/01 05:24:28;;;;;;;29.38;24.58;;;11.30;99.90;;;;;;4839755;29;20131;-77
2022/06/01 05:26:54;;;;;;;27.77;23.48;;;11.40;99.90;;;;;;4863269;29;20129;-78
2022/06/01 05:29:22;;;;;;;30.35;24.35;;;11.40;99.90;;;;;;4848778;29;20037;-78
2022/06/01 05:31:48;;;;;;;30.48;25.90;;;11.50;99.90;;;;;;4850387;29;20475;-77
2022/06/01 05:34:14;;;;;;;31.60;25.30;;;11.60;99.90;;;;;;4851057;29;20423;-77
2022/06/01 05:36:40;;;;;;;29.55;25.65;;;11.60;99.90;;;;;;4853376;29;20092;-78
2022/06/01 05:39:06;;;;;;;30.63;24.40;;;11.80;99.90;;;;;;4853554;29;20385;-77
2022/06/01 05:41:33;;;;;;;31.38;24.40;;;11.80;99.90;;;;;;4879635;29;20045;-78
2022/06/01 05:43:59;;;;;;;27.98;23.67;;;11.90;99.90;;;;;;4858589;29;20400;-78
2022/06/01 05:46:26;;;;;;;28.00;24.23;;;12.00;99.90;;;;;;4856993;29;20046;-78
2022/06/01 05:48:52;;;;;;;28.13;24.90;;;12.40;99.90;;;;;;4851887;29;20128;-78
2022/06/01 05:51:20;;;;;;;26.50;23.75;;;13.20;99.90;;;;;;4878432;29;20076;-78
2022/06/01 05:53:46;;;;;;;24.83;22.23;;;14.00;99.90;;;;;;4858418;29;20048;-79
2022/06/01 05:56:28;;;;;;;22.23;19.83;;;14.40;99.90;;;;;;4854796;29;20044;-81
2022/06/01 05:58:56;;;;;;;21.58;18.83;;;14.40;99.90;;;;;;4850530;29;20053;-78
2022/06/01 06:01:23;;;;;;;20.17;18.10;;;14.20;99.90;;;;;;4848425;29;20048;-78
2022/06/01 06:03:55;;;;;;;19.85;17.85;;;14.00;99.90;;;;;;4872801;29;20044;-79
2022/06/01 06:06:24;;;;;;;18.92;16.75;;;13.80;99.90;;;;;;4853462;29;20615;-79
2022/06/01 06:09:07;;;;;;;15.68;14.05;;;13.80;99.90;;;;;;4858386;29;20081;-78
2022/06/01 06:11:46;;;;;;;15.98;14.27;;;13.60;99.90;;;;;;4869854;29;20461;-80
2022/06/01 06:14:31;;;;;;;14.70;13.13;;;13.50;99.90;;;;;;4873378;29;20044;-80
2022/06/01 06:17:14;;;;;;;14.93;13.32;;;13.50;99.90;;;;;;4840526;29;20049;-80
2022/06/01 06:19:49;;;;;;;15.55;14.02;;;13.60;99.90;;;;;;4854768;29;20041;-79
2022/06/01 06:22:25;;;;;;;13.90;12.45;;;13.80;99.90;;;;;;4842158;29;20040;-79
2022/06/01 06:29:42;;;;;;;;;;;;;;;;;;;;;
2022/06/01 06:37:12;;;;;;;;;;;;;;;;;;;;;
2022/06/01 06:41:12;;;;;;;10.77;9.48;;;13.70;99.90;;;;;;4682818;30;20143;-80
2022/06/01 06:44:30;;;;;;;12.10;10.20;;;13.70;99.90;;;;;;4691435;30;20057;-80
2022/06/01 06:47:19;;;;;;;10.88;8.65;;;13.80;99.90;;;;;;4684190;30;20061;-81
2022/06/01 06:50:04;;;;;;;11.02;9.50;;;13.80;99.90;;;;;;4705214;29;20087;-80
2022/06/01 06:52:39;;;;;;;11.50;9.65;;;14.00;99.90;;;;;;4821432;29;20099;-80
2022/06/01 06:55:56;;;;;;;10.40;9.40;;;14.00;99.90;;;;;;4824675;29;20088;-79
2022/06/01 07:02:31;;;;;;;10.00;9.00;;;13.80;99.90;;;;;;4868497;29;20501;-80
2022/06/01 07:08:48;;;;;;;10.32;9.30;;;13.90;99.90;;;;;;4887030;29;20045;-79
2022/06/01 07:12:03;;;;;;;11.25;8.65;;;14.10;99.90;;;;;;4846834;29;20587;-80
2022/06/01 07:14:59;;;;;;;11.00;8.80;;;14.20;99.90;;;;;;4881149;29;20045;-80
2022/06/01 07:18:00;;;;;;;9.73;8.70;;;14.20;99.90;;;;;;4853053;29;20041;-80
2022/06/01 07:21:07;;;;;;;10.27;9.10;;;14.10;99.90;;;;;;4825069;29;20056;-79
2022/06/01 07:24:04;;;;;;;11.10;10.00;;;14.00;99.90;;;;;;4861213;29;20045;-81
2022/06/01 07:26:49;;;;;;;10.48;9.20;;;14.10;99.90;;;;;;4848092;29;20472;-80
2022/06/01 07:29:46;;;;;;;10.57;9.48;;;14.20;99.90;;;;;;4848935;29;20230;-79
2022/06/01 07:33:11;;;;;;;10.25;8.68;;;14.30;99.90;;;;;;4880408;29;20047;-80
2022/06/01 07:35:42;;;;;;;8.98;8.02;;;14.40;99.90;;;;;;4849123;29;20457;-80
2022/06/01 07:48:58;;;;;;;9.80;8.65;;;14.30;99.90;;;;;;4874903;29;20041;-81
2022/06/01 07:51:47;;;;;;;11.05;8.88;;;14.30;99.90;;;;;;4856080;29;20041;-80
2022/06/01 07:54:48;;;;;;;10.55;9.45;;;14.20;99.90;;;;;;4844504;29;20050;-81
2022/06/01 07:57:17;;;;;;;12.63;9.30;;;14.00;99.90;;;;;;4831151;29;20105;-80
2022/06/01 08:00:17;;;;;;;6.43;3.35;;;13.70;99.90;;;;;;4836864;29;20045;-79
2022/06/01 08:10:56;;;;;;;3.63;1.63;;;12.10;99.90;;;;;;4798709;29;20062;-80
2022/06/01 08:21:04;;;;;;;2.85;2.55;;;11.70;99.90;;;;;;4805212;29;20091;-80
2022/06/01 08:24:34;;;;;;;;;;;;;;;;;;;;;
2022/06/01 08:27:39;;;;;;;8.40;6.47;;;11.90;99.90;;;;;;4803613;24;20061;-80
2022/06/01 08:31:32;;;;;;;;;;;;;;;;;;;;;
2022/06/01 08:34:12;;;;;;;8.10;7.05;;;14.30;99.90;;;;;;4815123;29;20044;-81
2022/06/01 08:45:00;;;;;;;8.98;8.07;;;18.50;99.90;;;;;;4799318;29;20118;-79
2022/06/01 08:48:00;;;;;;;9.18;8.27;;;19.30;99.90;;;;;;4775775;29;20521;-79
2022/06/01 08:51:15;;;;;;;7.70;7.00;;;19.70;99.90;;;;;;4850123;29;20106;-80
2022/06/01 08:54:21;;;;;;;6.25;5.65;;;20.00;99.90;;;;;;4846554;29;20060;-80
2022/06/01 08:57:11;;;;;;;5.25;4.75;;;20.20;99.90;;;;;;4825635;29;20060;-80
2022/06/01 09:00:35;;;;;;;5.25;4.75;;;20.70;99.90;;;;;;4812311;29;20283;-80
2022/06/01 09:03:31;;;;;;;4.80;4.40;;;21.10;99.90;;;;;;4794872;29;20049;-81
2022/06/01 09:07:02;;;;;;;4.35;3.95;;;20.50;99.90;;;;;;4835300;29;20186;-79
2022/06/01 09:13:45;;;;;;;4.53;3.60;;;18.50;99.90;;;;;;4836363;29;20052;-79
2022/06/01 09:17:06;;;;;;;4.78;3.33;;;17.60;99.90;;;;;;4850153;23;20032;-80
2022/06/01 09:22:57;;;;;;;;;;;;;;;;;;;;;
2022/06/01 09:25:56;;;;;;;1.73;1.40;;;19.80;99.90;;;;;;4872632;29;20060;-81
2022/06/01 09:28:58;;;;;;;1.80;1.20;;;19.80;99.90;;;;;;4869375;29;20037;-80
2022/06/01 09:32:20;;;;;;;1.17;1.08;;;19.50;99.90;;;;;;4873496;29;20044;-80
2022/06/01 09:35:59;;;;;;;2.28;1.45;;;19.00;99.90;;;;;;4878321;29;20049;-80
2022/06/01 09:39:43;;;;;;;1.55;1.45;;;19.10;99.90;;;;;;4833137;29;20504;-80
2022/06/01 09:43:03;;;;;;;2.05;1.85;;;20.00;99.90;;;;;;4804035;29;20610;-80
2022/06/01 09:46:33;;;;;;;1.83;1.60;;;21.00;99.90;;;;;;4791578;29;20078;-80
2022/06/01 09:49:56;;;;;;;1.85;1.40;;;20.60;99.90;;;;;;4881663;29;20049;-79
2022/06/01 09:52:46;;;;;;;1.30;1.20;;;19.60;99.90;;;;;;4870504;29;20052;-80
2022/06/01 09:55:25;;;;;;;1.20;1.10;;;19.50;99.90;;;;;;4881637;29;20057;-80
2022/06/01 10:07:34;;;;;;;1.83;1.70;;;19.10;99.90;;;;;;4855440;29;20053;-80
2022/06/01 10:10:30;;;;;;;2.10;1.88;;;19.80;99.90;;;;;;4837544;29;20049;-80
2022/06/01 10:13:19;;;;;;;2.17;1.80;;;20.70;99.90;;;;;;4863823;29;20057;-79
2022/06/01 10:16:21;;;;;;;1.73;1.40;;;21.70;99.90;;;;;;4854944;29;20052;-80
2022/06/01 10:19:20;;;;;;;1.70;1.60;;;21.90;99.90;;;;;;4882524;29;20041;-79
2022/06/01 10:21:53;;;;;;;1.75;1.65;;;21.80;99.90;;;;;;4865627;29;20041;-79
2022/06/01 10:24:42;;;;;;;2.40;1.70;;;21.60;99.90;;;;;;4862697;29;20091;-80
2022/06/01 10:27:11;;;;;;;1.88;1.50;;;21.20;99.90;;;;;;4831499;29;20124;-79
2022/06/01 10:29:42;;;;;;;2.20;1.83;;;20.50;99.90;;;;;;4816632;29;20034;-79
2022/06/01 10:33:08;;;;;;;3.92;2.00;;;19.70;99.90;;;;;;4817729;29;20057;-80
2022/06/01 10:36:12;;;;;;;2.35;0.85;;;18.70;99.90;;;;;;4867196;29;20068;-79
2022/06/01 10:39:11;;;;;;;1.13;0.80;;;17.60;99.90;;;;;;4866904;29;20060;-79
2022/06/01 10:45:23;;;;;;;0.77;0.70;;;15.70;99.90;;;;;;4885448;29;20053;-79
2022/06/01 10:47:57;;;;;;;1.92;0.95;;;14.90;99.90;;;;;;4826056;29;20190;-79
2022/06/01 10:50:30;;;;;;;1.58;1.10;;;14.40;99.90;;;;;;4887860;29;20063;-79
2022/06/01 10:53:30;;;;;;;1.83;1.15;;;14.10;99.90;;;;;;4868815;29;20504;-78
2022/06/01 10:55:57;;;;;;;1.30;1.20;;;13.90;99.90;;;;;;4837093;29;20190;-79
2022/06/01 10:58:26;;;;;;;4.78;1.58;;;14.00;99.90;;;;;;4845416;29;20055;-79
2022/06/01 11:01:10;;;;;;;2.00;1.83;;;14.30;99.90;;;;;;4869388;29;20516;-78
2022/06/01 11:03:50;;;;;;;2.67;2.08;;;14.60;99.90;;;;;;4871426;29;20501;-78
2022/06/01 11:06:54;;;;;;;3.40;2.60;;;15.20;99.90;;;;;;4855665;29;20045;-78
2022/06/01 11:09:53;;;;;;;1.67;1.30;;;16.30;99.90;;;;;;4862445;29;20056;-78
2022/06/01 11:12:36;;;;;;;1.58;1.20;;;17.50;99.90;;;;;;4841404;29;20492;-77
2022/06/01 11:15:20;;;;;;;1.15;1.05;;;18.10;99.90;;;;;;4836441;29;20042;-77
2022/06/01 11:18:02;;;;;;;0.88;0.88;;;18.40;99.90;;;;;;4842140;29;20036;-78
2022/06/01 11:20:48;;;;;;;0.90;0.80;;;18.30;99.90;;;;;;4861687;29;20127;-77
2022/06/01 11:23:45;;;;;;;0.50;0.50;;;18.10;99.90;;;;;;4865114;29;20045;-78
2022/06/01 11:26:39;;;;;;;1.02;0.60;;;18.20;99.90;;;;;;4853674;29;20057;-78
2022/06/01 11:29:27;;;;;;;0.73;0.60;;;19.10;99.90;;;;;;4857862;29;20053;-78
2022/06/01 11:32:04;;;;;;;1.25;0.50;;;19.50;99.90;;;;;;4877958;29;20139;-78
2022/06/01 11:34:52;;;;;;;0.50;0.50;;;19.40;99.90;;;;;;4870762;29;20036;-78
2022/06/01 11:37:27;;;;;;;0.40;0.40;;;19.40;99.90;;;;;;4852267;29;20177;-77
2022/06/01 11:39:57;;;;;;;1.38;0.50;;;19.40;99.90;;;;;;4859942;29;20334;-77
2022/06/01 11:42:48;;;;;;;1.02;0.50;;;19.00;99.90;;;;;;4861830;29;20501;-77
2022/06/01 11:45:22;;;;;;;1.75;0.60;;;18.50;99.90;;;;;;4876135;29;20109;-77
2022/06/01 11:48:07;;;;;;;1.52;0.80;;;18.20;99.90;;;;;;4848964;29;20523;-77
2022/06/01 11:50:48;;;;;;;1.10;0.80;;;18.60;99.90;;;;;;4867479;29;20032;-77
2022/06/01 11:53:32;;;;;;;1.17;0.90;;;19.40;99.90;;;;;;4853846;29;20527;-77
2022/06/01 11:56:33;;;;;;;1.90;1.00;;;20.40;99.90;;;;;;4858367;29;20385;-77
2022/06/01 11:59:16;;;;;;;1.65;0.85;;;21.00;99.90;;;;;;4855711;29;20144;-79
2022/06/01 12:01:51;;;;;;;1.30;0.70;;;21.40;99.90;;;;;;4858371;29;20040;-79
2022/06/01 12:05:01;;;;;;;1.90;0.77;;;21.70;99.90;;;;;;4863191;29;20049;-78
2022/06/01 12:07:39;;;;;;;0.65;0.65;;;22.20;99.90;;;;;;4847775;29;20053;-79
2022/06/01 12:10:24;;;;;;;1.40;1.30;;;22.60;99.90;;;;;;4863641;29;20057;-78
2022/06/01 12:12:57;;;;;;;1.55;1.42;;;22.90;99.90;;;;;;4860422;29;20045;-79
2022/06/01 12:15:38;;;;;;;2.47;1.77;;;23.10;99.90;;;;;;4851636;29;20037;-79
2022/06/01 12:18:15;;;;;;;2.42;1.50;;;23.20;99.90;;;;;;4825029;29;20041;-78
2022/06/01 12:20:46;;;;;;;1.73;1.60;;;23.40;99.90;;;;;;4865285;29;20049;-78
2022/06/01 12:29:29;;;;;;;;;;;23.50;99.90;;;;;;4879589;29;20452;-78
2022/06/01 12:31:57;;;;;;;2.35;2.10;;;23.60;99.90;;;;;;4868017;29;20011;-78
2022/06/01 12:34:30;;;;;;;2.35;2.00;;;23.60;99.90;;;;;;4876262;29;20041;-78
2022/06/01 12:37:07;;;;;;;2.30;2.10;;;23.40;99.90;;;;;;4850003;29;20037;-78
2022/06/01 12:39:39;;;;;;;3.35;1.92;;;22.80;99.90;;;;;;4832068;29;20037;-78
2022/06/01 12:42:36;;;;;;;2.10;1.88;;;22.40;99.90;;;;;;4851336;29;20576;-78
2022/06/01 12:45:13;;;;;;;2.10;1.90;;;21.90;99.90;;;;;;4850461;29;20123;-78
2022/06/01 12:47:58;;;;;;;2.13;1.95;;;21.90;99.90;;;;;;4867121;29;20048;-78
2022/06/01 12:50:29;;;;;;;2.63;1.88;;;22.40;99.90;;;;;;4846358;29;20048;-78
2022/06/01 12:53:15;;;;;;;2.10;1.98;;;22.90;99.90;;;;;;4854288;29;20381;-78
2022/06/01 12:55:47;;;;;;;1.80;1.50;;;23.30;99.90;;;;;;4861867;29;20416;-78
2022/06/01 12:58:26;;;;;;;1.55;1.35;;;23.60;99.90;;;;;;4857964;29;20045;-78
2022/06/01 13:00:56;;;;;;;1.92;1.45;;;23.50;99.90;;;;;;4857545;29;20117;-78
2022/06/01 13:03:33;;;;;;;1.27;1.00;;;22.70;99.90;;;;;;4851835;29;20123;-79
2022/06/01 13:06:11;;;;;;;2.03;1.20;;;22.10;99.90;;;;;;4853921;29;20082;-78
2022/06/01 13:08:39;;;;;;;1.40;1.30;;;22.40;99.90;;;;;;4842229;29;20033;-78
2022/06/01 13:11:29;;;;;;;1.80;1.00;;;22.70;99.90;;;;;;4851574;29;20062;-78
2022/06/01 13:14:04;;;;;;;2.00;0.90;;;22.20;99.90;;;;;;4849192;29;20522;-78
2022/06/01 13:16:47;;;;;;;1.10;1.00;;;21.70;99.90;;;;;;4845249;29;20037;-79
2022/06/01 13:19:27;;;;;;;1.83;1.35;;;21.10;99.90;;;;;;4861184;29;20547;-77
2022/06/01 13:22:10;;;;;;;2.13;1.50;;;20.30;99.90;;;;;;4856097;29;20053;-78
2022/06/01 13:24:56;;;;;;;2.33;1.60;;;19.50;99.90;;;;;;4853714;29;20057;-78
2022/06/01 13:27:29;;;;;;;2.38;1.60;;;18.90;99.90;;;;;;4862086;29;20053;-78
2022/06/01 13:29:59;;;;;;;1.50;1.40;;;18.50;99.90;;;;;;4866759;29;20404;-78
2022/06/01 13:32:41;;;;;;;1.55;1.40;;;18.30;99.90;;;;;;4854447;29;20684;-78
2022/06/01 13:35:31;;;;;;;1.88;1.10;;;18.10;99.90;;;;;;4882629;29;20048;-78
2022/06/01 13:37:58;;;;;;;1.83;1.40;;;18.20;99.90;;;;;;4832050;29;20417;-78
2022/06/01 13:40:28;;;;;;;1.20;0.90;;;18.60;99.90;;;;;;4866834;29;20094;-78
2022/06/01 13:43:05;;;;;;;1.08;0.90;;;19.40;99.90;;;;;;4861864;29;20056;-78
2022/06/01 13:45:56;;;;;;;1.27;0.85;;;20.10;99.90;;;;;;4846664;29;20049;-79
2022/06/01 13:48:48;;;;;;;1.48;0.90;;;20.80;99.90;;;;;;4850993;29;20043;-78
2022/06/01 13:51:38;;;;;;;1.60;1.50;;;21.60;99.90;;;;;;4851887;29;20052;-78
2022/06/01 13:54:29;;;;;;;1.40;1.30;;;22.20;99.90;;;;;;4861052;29;20065;-78
2022/06/01 13:57:09;;;;;;;1.60;1.50;;;22.20;99.90;;;;;;4847647;29;20086;-78
2022/06/01 13:59:39;;;;;;;2.28;1.50;;;21.70;99.90;;;;;;4845790;29;20060;-78
2022/06/01 14:02:31;;;;;;;1.52;1.42;;;21.10;99.90;;;;;;4861030;29;20197;-78
2022/06/01 14:05:14;;;;;;;2.10;1.52;;;20.40;99.90;;;;;;4849600;29;20104;-78
2022/06/01 14:07:48;;;;;;;3.25;1.40;;;20.00;99.90;;;;;;4843451;29;20202;-78
2022/06/01 14:10:14;;;;;;;1.33;1.23;;;19.40;99.90;;;;;;4843093;29;20045;-78
2022/06/01 14:12:43;;;;;;;0.70;0.70;;;18.90;99.90;;;;;;4836082;29;20176;-78
2022/06/01 14:15:13;;;;;;;0.70;0.70;;;18.50;99.90;;;;;;4856555;29;20587;-78
2022/06/01 14:17:43;;;;;;;1.88;0.88;;;18.20;99.90;;;;;;4895650;29;20077;-78
2022/06/01 14:20:12;;;;;;;1.10;1.00;;;17.90;99.90;;;;;;4864120;29;20412;-78
2022/06/01 14:22:39;;;;;;;1.25;1.13;;;17.60;99.90;;;;;;4849353;29;20405;-78
2022/06/01 14:30:34;;;;;;;1.63;1.52;;;16.90;99.90;;;;;;4880684;29;20082;-78
2022/06/01 14:33:00;;;;;;;1.88;1.73;;;16.80;99.90;;;;;;4851418;29;20097;-78
2022/06/01 14:35:29;;;;;;;3.17;1.90;;;16.80;99.90;;;;;;4851367;29;20141;-77
2022/06/01 14:37:54;;;;;;;2.15;1.90;;;17.00;99.90;;;;;;4846480;29;20109;-77
2022/06/01 14:40:20;;;;;;;2.00;1.70;;;17.60;99.90;;;;;;4859450;29;20041;-77
2022/06/01 14:42:46;;;;;;;2.17;1.70;;;18.30;99.90;;;;;;4861770;29;20536;-77
2022/06/01 14:45:14;;;;;;;2.00;1.70;;;18.60;99.90;;;;;;4852473;29;20040;-77
2022/06/01 14:47:40;;;;;;;2.35;1.63;;;18.50;99.90;;;;;;4836207;29;20048;-77
2022/06/01 14:50:06;;;;;;;1.15;1.05;;;18.30;99.90;;;;;;4863759;29;20444;-77
2022/06/01 14:52:32;;;;;;;1.10;1.00;;;18.20;99.90;;;;;;4881887;29;20135;-77
2022/06/01 14:55:02;;;;;;;1.90;0.88;;;18.20;99.90;;;;;;4855664;29;20041;-77
2022/06/01 14:57:28;;;;;;;1.50;1.40;;;18.10;99.90;;;;;;4838250;29;20045;-77
2022/06/01 14:59:53;;;;;;;0.63;0.63;;;17.90;99.90;;;;;;4869851;29;20057;-77
2022/06/01 15:02:21;;;;;;;0.57;0.55;;;17.90;99.90;;;;;;4862237;29;20049;-77
2022/06/01 15:04:51;;;;;;;0.50;0.50;;;17.80;99.90;;;;;;4851477;29;20040;-77
2022/06/01 15:07:17;;;;;;;1.17;0.65;;;17.70;99.90;;;;;;4845025;29;20041;-77
2022/06/01 15:09:43;;;;;;;0.95;0.70;;;17.50;99.90;;;;;;4879930;29;20040;-77
2022/06/01 15:12:09;;;;;;;0.95;0.73;;;17.30;99.90;;;;;;4852197;29;20049;-77